Time;durP1;ratioP1;P1;durP2;ratioP2;P2;SDS_P1;SDS_P2;PMS_P1;PMS_P2;Temp;Humidity;BMP_temperature;BMP_pressure;BME280_temperature;BME280_humidity;BME280_pressure;Samples;Min_cycle;Max_cycle;Signal;HPM_P1;HPM_P2
2022/04/25 00:00:31;;;;;;;17.40;5.37;;;;;;;16.32;90.88;98718.88;5049742;28;20208;-53
2022/04/25 00:02:59;;;;;;;20.27;5.87;;;;;;;16.26;91.43;98724.47;5049756;28;20197;-54
2022/04/25 00:05:27;;;;;;;21.23;5.77;;;;;;;16.25;91.23;98722.00;5049692;28;20312;-54
2022/04/25 00:07:54;;;;;;;25.93;5.80;;;;;;;16.32;91.20;98733.72;5049501;28;20197;-55
2022/04/25 00:10:21;;;;;;;14.80;5.53;;;;;;;16.34;91.57;98734.47;5049827;28;20337;-54
2022/04/25 00:12:48;;;;;;;19.43;5.87;;;;;;;16.16;91.04;98701.59;5049822;28;20200;-54
2022/04/25 00:15:15;;;;;;;13.10;5.63;;;;;;;16.33;90.07;98732.78;5049785;28;20700;-59
2022/04/25 00:17:42;;;;;;;18.87;5.47;;;;;;;16.21;91.12;98734.44;5052241;28;20669;-56
2022/04/25 00:20:10;;;;;;;21.70;6.17;;;;;;;16.24;91.43;98731.63;5049635;28;20666;-57
2022/04/25 00:22:38;;;;;;;16.93;5.00;;;;;;;16.32;90.81;98741.59;5049185;28;20204;-58
2022/04/25 00:25:06;;;;;;;23.53;5.47;;;;;;;16.34;90.10;98737.09;5049294;28;20228;-58
2022/04/25 00:27:33;;;;;;;17.70;5.80;;;;;;;16.38;89.55;98735.94;5049278;28;20214;-55
2022/04/25 00:30:00;;;;;;;20.33;5.70;;;;;;;16.29;89.66;98742.63;5049446;28;20197;-54
2022/04/25 00:32:27;;;;;;;21.53;5.40;;;;;;;16.31;90.09;98739.91;5049209;28;20204;-54
2022/04/25 00:34:54;;;;;;;14.13;5.03;;;;;;;16.12;90.75;98726.31;5049519;28;20199;-54
2022/04/25 00:37:21;;;;;;;26.27;5.50;;;;;;;16.14;91.14;98734.94;5049822;28;20189;-54
2022/04/25 00:39:49;;;;;;;18.50;5.33;;;;;;;16.06;91.37;98724.06;5049261;28;20204;-55
2022/04/25 00:42:16;;;;;;;28.13;6.17;;;;;;;16.18;91.03;98739.84;5049221;28;20215;-54
2022/04/25 00:44:43;;;;;;;17.23;5.30;;;;;;;16.24;90.64;98738.63;5049244;28;20204;-53
2022/04/25 00:47:10;;;;;;;11.97;5.23;;;;;;;15.97;91.50;98704.56;5049067;28;20223;-53
2022/04/25 00:49:37;;;;;;;14.97;5.63;;;;;;;16.07;91.66;98725.75;5048919;28;20192;-54
2022/04/25 00:52:05;;;;;;;16.17;5.87;;;;;;;16.07;91.82;98731.84;5048978;28;20197;-53
2022/04/25 00:54:33;;;;;;;20.73;5.40;;;;;;;16.06;91.54;98734.56;5048899;28;20205;-53
2022/04/25 00:57:02;;;;;;;10.00;4.87;;;;;;;15.91;93.02;98731.16;5048816;28;20192;-58
2022/04/25 00:59:30;;;;;;;19.47;5.47;;;;;;;15.97;92.43;98736.81;5048686;28;20287;-58
2022/04/25 01:01:57;;;;;;;13.90;5.50;;;;;;;15.74;94.12;98740.03;5048868;28;20265;-58
2022/04/25 01:04:24;;;;;;;15.70;5.30;;;;;;;15.68;94.97;98745.66;5048812;28;20203;-58
2022/04/25 01:06:51;;;;;;;22.47;5.23;;;;;;;15.63;95.55;98749.47;5048999;28;20603;-58
2022/04/25 01:09:18;;;;;;;13.80;5.07;;;;;;;15.68;95.27;98750.06;5048890;28;20586;-58
2022/04/25 01:11:45;;;;;;;12.90;5.23;;;;;;;15.61;95.21;98728.66;5048904;28;20197;-58
2022/04/25 01:14:16;;;;;;;15.53;5.60;;;;;;;15.64;95.12;98738.09;5048752;28;20193;-58
2022/04/25 01:16:43;;;;;;;12.47;5.20;;;;;;;15.73;93.70;98733.13;5048490;28;20224;-54
2022/04/25 01:19:10;;;;;;;15.47;4.90;;;;;;;15.40;93.42;98698.56;5048903;28;20793;-54
2022/04/25 01:21:44;;;;;;;10.53;5.67;;;;;;;15.46;94.13;98712.06;5048477;28;20247;-54
2022/04/25 01:29:41;;;;;;;14.70;5.27;;;;;;;15.26;97.12;98738.59;5048517;28;20737;-54
2022/04/25 01:32:09;;;;;;;17.40;5.53;;;;;;;15.16;97.94;98725.25;5048617;28;20287;-54
2022/04/25 01:34:38;;;;;;;21.10;5.83;;;;;;;15.26;97.50;98731.59;5048411;28;20692;-53
2022/04/25 01:37:08;;;;;;;12.23;5.10;;;;;;;15.19;97.54;98717.22;5047671;28;20197;-54
2022/04/25 01:39:39;;;;;;;9.87;4.43;;;;;;;15.25;98.16;98732.53;5048158;28;20193;-53
2022/04/25 01:42:07;;;;;;;14.43;5.47;;;;;;;15.30;97.89;98734.88;5048513;28;20219;-57
2022/04/25 01:44:35;;;;;;;20.33;5.27;;;;;;;15.30;97.66;98744.50;5048323;28;20223;-57
2022/04/25 01:47:02;;;;;;;12.13;5.13;;;;;;;15.19;98.92;98742.53;5048202;28;20220;-58
2022/04/25 01:49:29;;;;;;;20.63;5.73;;;;;;;15.12;99.99;98734.19;5048080;28;20192;-58
2022/04/25 01:51:56;;;;;;;14.27;5.00;;;;;;;15.00;100.00;98736.72;5048266;28;20201;-56
2022/04/25 01:54:26;;;;;;;18.60;5.30;;;;;;;14.84;100.00;98732.38;5047858;28;20228;-57
2022/04/25 01:56:56;;;;;;;15.00;5.33;;;;;;;14.90;100.00;98736.41;5047922;28;20196;-57
2022/04/25 01:59:23;;;;;;;22.03;5.50;;;;;;;15.05;100.00;98735.50;5047827;28;20219;-57
2022/04/25 02:01:51;;;;;;;21.40;6.07;;;;;;;14.99;100.00;98699.28;5048100;28;20617;-57
2022/04/25 02:04:18;;;;;;;21.23;5.77;;;;;;;15.06;100.00;98721.50;5047921;28;20188;-56
2022/04/25 02:06:45;;;;;;;16.80;5.70;;;;;;;15.14;100.00;98724.50;5047671;28;20224;-57
2022/04/25 02:09:12;;;;;;;14.83;6.13;;;;;;;15.22;100.00;98726.66;5047817;28;20203;-53
2022/04/25 02:11:39;;;;;;;10.93;5.53;;;;;;;15.16;100.00;98727.03;5047629;28;20196;-54
2022/04/25 02:14:07;;;;;;;21.27;5.90;;;;;;;15.07;100.00;98731.03;5047771;28;20200;-53
2022/04/25 02:16:34;;;;;;;20.67;6.03;;;;;;;14.87;100.00;98729.59;5047805;28;20197;-54
2022/04/25 02:19:01;;;;;;;16.70;5.77;;;;;;;14.82;100.00;98734.25;5047710;28;20218;-53
2022/04/25 02:21:28;;;;;;;17.77;5.83;;;;;;;14.78;100.00;98729.31;5047653;28;20205;-53
2022/04/25 02:23:56;;;;;;;18.57;7.50;;;;;;;14.84;100.00;98735.00;5047662;28;20196;-53
2022/04/25 02:26:23;;;;;;;20.97;6.23;;;;;;;14.70;100.00;98723.66;5047208;28;20232;-53
2022/04/25 02:28:50;;;;;;;20.47;6.73;;;;;;;14.68;100.00;98733.34;5047448;28;20207;-53
2022/04/25 02:31:18;;;;;;;14.77;5.70;;;;;;;14.60;100.00;98732.97;5047421;28;20236;-54
2022/04/25 02:33:45;;;;;;;25.40;7.33;;;;;;;14.50;100.00;98722.22;5047423;28;20200;-53
2022/04/25 02:36:12;;;;;;;24.17;7.00;;;;;;;14.49;100.00;98731.81;5047571;28;20233;-53
2022/04/25 02:38:40;;;;;;;17.50;6.83;;;;;;;14.55;100.00;98725.41;5047203;28;20192;-54
2022/04/25 02:41:09;;;;;;;16.83;7.97;;;;;;;14.56;100.00;98729.69;5047250;28;20199;-53
2022/04/25 02:43:38;;;;;;;17.73;7.90;;;;;;;14.65;100.00;98725.72;5047263;28;20198;-54
2022/04/25 02:46:06;;;;;;;15.87;7.07;;;;;;;14.73;100.00;98726.09;5047064;28;20201;-54
2022/04/25 02:48:35;;;;;;;28.30;8.17;;;;;;;14.78;100.00;98726.69;5046127;28;20231;-54
2022/04/25 02:51:03;;;;;;;19.47;7.70;;;;;;;14.75;100.00;98725.09;5047381;28;20207;-54
2022/04/25 02:53:31;;;;;;;16.57;7.27;;;;;;;14.83;100.00;98730.69;5047513;28;20692;-54
2022/04/25 02:55:58;;;;;;;16.23;7.10;;;;;;;14.81;100.00;98732.56;5047183;28;20192;-54
2022/04/25 02:58:26;;;;;;;22.73;6.90;;;;;;;14.89;100.00;98734.75;5047111;28;20204;-53
2022/04/25 03:00:53;;;;;;;19.27;7.10;;;;;;;14.89;100.00;98739.97;5046976;28;20232;-53
2022/04/25 03:03:21;;;;;;;22.13;6.97;;;;;;;14.85;100.00;98738.47;5047231;28;20200;-53
2022/04/25 03:05:51;;;;;;;22.67;7.47;;;;;;;14.78;100.00;98731.91;5046980;28;20200;-54
2022/04/25 03:08:19;;;;;;;13.97;6.87;;;;;;;14.81;100.00;98731.72;5046800;28;20235;-54
2022/04/25 03:10:47;;;;;;;23.30;7.40;;;;;;;14.81;100.00;98734.31;5046984;28;20196;-52
2022/04/25 03:13:15;;;;;;;17.60;6.63;;;;;;;14.75;100.00;98737.31;5046547;28;20193;-53
2022/04/25 03:15:43;;;;;;;26.83;7.83;;;;;;;14.75;100.00;98738.16;5046863;28;20197;-53
2022/04/25 03:18:12;;;;;;;17.83;7.17;;;;;;;14.74;100.00;98740.84;5046735;28;20197;-54
2022/04/25 03:20:40;;;;;;;16.83;7.63;;;;;;;14.65;100.00;98741.38;5043389;28;20283;-59
2022/04/25 03:23:08;;;;;;;16.50;7.23;;;;;;;14.51;100.00;98735.19;5026540;28;20260;-58
2022/04/25 03:25:37;;;;;;;21.37;7.53;;;;;;;14.51;100.00;98729.13;5025996;28;20685;-57
2022/04/25 03:28:04;;;;;;;19.60;7.93;;;;;;;14.55;100.00;98733.25;5026440;28;20272;-58
2022/04/25 03:30:32;;;;;;;22.27;8.37;;;;;;;14.49;100.00;98731.81;5026270;28;20225;-54
2022/04/25 03:32:59;;;;;;;23.87;8.30;;;;;;;14.51;100.00;98735.19;5025683;28;20228;-54
2022/04/25 03:35:26;;;;;;;32.63;9.57;;;;;;;14.55;100.00;98730.63;5026072;28;20221;-54
2022/04/25 03:37:53;;;;;;;26.93;8.67;;;;;;;14.52;100.00;98736.88;5026134;28;20225;-53
2022/04/25 03:40:22;;;;;;;27.77;8.63;;;;;;;14.55;100.00;98735.00;5026012;28;20260;-54
2022/04/25 03:42:49;;;;;;;24.07;8.40;;;;;;;14.49;100.00;98723.97;5026050;28;20227;-54
2022/04/25 03:45:18;;;;;;;23.57;9.13;;;;;;;14.59;100.00;98744.34;5025985;28;20305;-53
2022/04/25 03:47:46;;;;;;;17.60;8.83;;;;;;;14.59;100.00;98737.34;5025744;28;20325;-54
2022/04/25 03:50:15;;;;;;;20.03;9.60;;;;;;;14.56;100.00;98732.28;5033841;28;20621;-53
2022/04/25 03:52:43;;;;;;;25.50;9.13;;;;;;;14.53;100.00;98737.72;5065487;28;20220;-58
2022/04/25 03:57:59;;;;;;;20.60;9.20;;;;;;;14.63;100.00;98735.41;5065670;28;20758;-58
2022/04/25 04:00:26;;;;;;;21.40;10.00;;;;;;;14.72;100.00;98734.88;5067231;28;20230;-58
2022/04/25 04:02:53;;;;;;;28.43;9.23;;;;;;;14.95;100.00;98728.31;5068619;28;20227;-58
2022/04/25 04:05:21;;;;;;;22.47;8.23;;;;;;;15.11;100.00;98731.69;5068820;28;20231;-58
2022/04/25 04:07:48;;;;;;;23.17;9.30;;;;;;;15.41;100.00;98740.31;5069010;27;20235;-57
2022/04/25 04:10:16;;;;;;;17.17;9.13;;;;;;;15.78;100.00;98740.69;5069167;28;20274;-58
2022/04/25 04:12:46;;;;;;;26.23;8.67;;;;;;;16.30;97.55;98740.84;5058249;27;20264;-58
2022/04/25 04:15:15;;;;;;;22.53;9.40;;;;;;;16.78;92.82;98728.97;5049543;28;20200;-58
2022/04/25 04:17:43;;;;;;;17.27;8.43;;;;;;;17.22;89.00;98727.75;5049463;28;20743;-60
2022/04/25 04:20:11;;;;;;;24.83;8.63;;;;;;;17.52;85.30;98716.91;5049262;28;20207;-58
2022/04/25 04:22:38;;;;;;;19.17;8.63;;;;;;;18.04;81.94;98730.72;5049321;28;20201;-58
2022/04/25 04:25:07;;;;;;;24.73;8.37;;;;;;;18.44;77.77;98712.88;5049368;28;20327;-59
2022/04/25 04:27:34;;;;;;;16.43;8.37;;;;;;;18.78;75.38;98707.78;5049396;28;20327;-59
2022/04/25 04:30:02;;;;;;;19.77;8.60;;;;;;;18.93;73.08;98698.75;5049254;28;20205;-59
2022/04/25 04:32:31;;;;;;;15.03;8.47;;;;;;;18.71;73.66;98698.69;5048577;28;20559;-58
2022/04/25 04:34:58;;;;;;;26.20;8.03;;;;;;;18.74;73.72;98695.81;5039261;28;20201;-58
2022/04/25 04:37:26;;;;;;;18.53;7.87;;;;;;;18.76;73.25;98671.09;5037822;28;20288;-59
2022/04/25 04:40:28;;;;;;;16.58;8.02;;;;;;;19.25;71.42;98691.00;5039130;28;20581;-59
2022/04/25 04:42:41;;;;;;;22.47;9.20;;;;;;;19.25;70.61;98693.63;5037588;28;20264;-57
2022/04/25 04:45:08;;;;;;;19.48;7.90;;;;;;;19.58;68.91;98698.09;5038642;28;20203;-58
2022/04/25 04:47:38;;;;;;;18.92;8.52;;;;;;;19.93;67.72;98697.94;5039650;27;20231;-54
2022/04/25 04:50:07;;;;;;;21.58;7.68;;;;;;;20.41;65.16;98698.44;5036083;28;20759;-55
2022/04/25 04:52:34;;;;;;;28.23;8.70;;;;;;;20.89;62.69;98697.94;5038830;28;20192;-54
2022/04/25 04:55:01;;;;;;;21.23;8.75;;;;;;;21.41;60.21;98696.19;5037347;28;20189;-55
2022/04/25 04:57:28;;;;;;;15.60;7.70;;;;;;;21.64;58.40;98701.16;5038006;28;20663;-55
2022/04/25 04:59:55;;;;;;;18.90;7.85;;;;;;;21.53;57.72;98692.50;5036452;28;20190;-54
2022/04/25 05:02:22;;;;;;;22.98;8.13;;;;;;;21.49;57.24;98680.53;5037994;28;20203;-54
2022/04/25 05:04:50;;;;;;;17.30;7.53;;;;;;;21.32;58.19;98682.00;5038670;28;20197;-54
2022/04/25 05:07:17;;;;;;;14.30;7.63;;;;;;;21.22;58.29;98689.03;5037182;28;20252;-55
2022/04/25 05:09:44;;;;;;;17.02;6.88;;;;;;;21.59;57.38;98698.06;5036722;28;20205;-54
2022/04/25 05:12:11;;;;;;;22.88;8.43;;;;;;;21.63;56.75;98711.84;5037590;28;20662;-54
2022/04/25 05:14:38;;;;;;;17.58;7.50;;;;;;;21.78;55.83;98715.81;5036398;28;20209;-58
2022/04/25 05:17:05;;;;;;;16.48;7.90;;;;;;;21.97;55.46;98717.66;5036503;28;20285;-58
2022/04/25 05:19:32;;;;;;;20.30;8.23;;;;;;;22.48;54.10;98727.22;5037200;28;20204;-58
2022/04/25 05:22:01;;;;;;;20.35;8.35;;;;;;;23.25;51.94;98737.78;5038227;28;20200;-58
2022/04/25 05:24:27;;;;;;;25.35;7.68;;;;;;;23.70;50.26;98722.88;5036535;28;20251;-54
2022/04/25 05:26:54;;;;;;;22.27;8.18;;;;;;;24.19;48.71;98728.75;5036509;28;20213;-54
2022/04/25 05:29:21;;;;;;;19.40;7.47;;;;;;;24.44;48.00;98749.28;5027567;28;20202;-52
2022/04/25 05:31:49;;;;;;;17.40;8.40;;;;;;;24.42;47.80;98767.16;5027526;28;20204;-54
2022/04/25 05:34:16;;;;;;;20.23;8.10;;;;;;;24.21;48.63;98780.66;5027541;28;20294;-56
2022/04/25 05:36:43;;;;;;;23.00;9.07;;;;;;;24.75;47.22;98764.81;5033194;28;20283;-58
2022/04/25 05:39:12;;;;;;;21.83;8.90;;;;;;;25.46;45.58;98796.63;5044605;28;20199;-57
2022/04/25 05:41:42;;;;;;;15.35;8.10;;;;;;;25.53;45.25;98802.97;5047603;28;20678;-55
2022/04/25 05:44:10;;;;;;;26.33;8.52;;;;;;;25.71;44.52;98800.31;5048037;28;20208;-54
2022/04/25 05:46:37;;;;;;;19.77;8.40;;;;;;;26.37;43.37;98806.63;5048039;28;20682;-57
2022/04/25 05:52:04;;;;;;;33.50;7.57;;;;;;;26.45;42.08;98813.78;5039463;28;20720;-54
2022/04/25 05:54:33;;;;;;;21.08;7.70;;;;;;;26.21;42.64;98809.19;5037440;28;20297;-54
2022/04/25 05:56:59;;;;;;;13.77;7.75;;;;;;;26.79;41.87;98813.69;5034802;28;20311;-55
2022/04/25 05:59:27;;;;;;;15.05;7.50;;;;;;;26.70;41.53;98812.88;5038064;27;20617;-58
2022/04/25 06:01:54;;;;;;;16.73;8.90;;;;;;;26.44;42.13;98801.47;5037312;28;20224;-58
2022/04/25 06:04:22;;;;;;;17.65;9.02;;;;;;;26.58;42.07;98810.66;5035222;28;20236;-58
2022/04/25 06:06:49;;;;;;;16.92;9.05;;;;;;;26.51;42.24;98802.50;5037271;27;20216;-57
2022/04/25 06:09:17;;;;;;;15.65;7.35;;;;;;;26.49;42.09;98793.84;5046990;28;20243;-58
2022/04/25 06:11:46;;;;;;;14.07;7.32;;;;;;;26.12;42.88;98793.34;5035456;28;20229;-56
2022/04/25 06:14:13;;;;;;;19.67;7.47;;;;;;;25.95;43.49;98795.97;5037792;28;20716;-55
2022/04/25 06:16:40;;;;;;;20.35;8.00;;;;;;;25.51;44.16;98781.88;5028580;28;20232;-54
2022/04/25 06:19:07;;;;;;;14.77;8.23;;;;;;;25.63;44.81;98801.91;5030490;27;20229;-54
2022/04/25 06:21:34;;;;;;;22.40;7.85;;;;;;;25.93;44.19;98797.94;5036452;28;20222;-54
2022/04/25 06:24:01;;;;;;;19.98;7.72;;;;;;;25.74;44.49;98784.84;5034566;28;20218;-54
2022/04/25 06:26:30;;;;;;;30.45;8.23;;;;;;;25.84;45.24;98793.59;5035949;28;20213;-55
2022/04/25 06:28:58;;;;;;;13.27;7.30;;;;;;;25.76;44.75;98788.19;5036987;28;20228;-57
2022/04/25 06:31:25;;;;;;;14.07;7.50;;;;;;;25.30;45.72;98782.22;5041155;27;20697;-57
2022/04/25 06:33:52;;;;;;;20.33;7.78;;;;;;;25.42;45.36;98777.50;5046657;28;20315;-56
2022/04/25 06:36:19;;;;;;;14.18;7.95;;;;;;;25.55;45.31;98769.94;5064381;28;20230;-57
2022/04/25 06:38:46;;;;;;;13.65;7.43;;;;;;;25.57;44.94;98775.09;5066091;28;20223;-56
2022/04/25 06:41:14;;;;;;;15.68;7.47;;;;;;;25.39;45.35;98772.53;5066704;27;20323;-57
2022/04/25 06:43:41;;;;;;;22.63;7.78;;;;;;;25.34;45.68;98780.09;5066683;27;20219;-56
2022/04/25 06:46:10;;;;;;;17.08;7.32;;;;;;;25.47;46.18;98777.03;5065869;28;20220;-57
2022/04/25 06:48:37;;;;;;;21.27;7.22;;;;;;;25.93;45.08;98776.66;5066357;28;20238;-56
2022/04/25 06:51:04;;;;;;;21.60;7.10;;;;;;;26.20;44.84;98788.06;5066472;28;20220;-57
2022/04/25 06:53:31;;;;;;;16.02;6.72;;;;;;;26.18;43.64;98782.94;5066636;28;20704;-57
2022/04/25 06:55:58;;;;;;;29.23;7.60;;;;;;;26.42;43.60;98784.00;5066138;28;20380;-57
2022/04/25 06:58:26;;;;;;;20.17;7.47;;;;;;;27.17;41.56;98788.31;5066272;28;20223;-57
2022/04/25 07:00:53;;;;;;;18.25;6.43;;;;;;;27.25;41.03;98785.63;5065752;28;20304;-57
2022/04/25 07:03:24;;;;;;;17.33;6.43;;;;;;;27.38;40.38;98790.44;5066572;28;20242;-58
2022/04/25 07:05:54;;;;;;;21.88;7.30;;;;;;;27.66;40.06;98790.91;5052235;27;20710;-57
2022/04/25 07:08:21;;;;;;;16.58;7.03;;;;;;;28.03;39.60;98775.13;5046295;28;20225;-57
2022/04/25 07:10:48;;;;;;;23.05;6.85;;;;;;;27.76;39.84;98771.06;5045912;27;20227;-57
2022/04/25 07:13:15;;;;;;;15.38;6.28;;;;;;;27.35;40.26;98772.94;5046774;28;20325;-55
2022/04/25 07:15:42;;;;;;;17.45;6.13;;;;;;;27.20;39.78;98734.66;5045576;27;20255;-54
2022/04/25 07:18:09;;;;;;;16.33;5.97;;;;;;;27.74;39.00;98780.25;5046518;28;20216;-57
2022/04/25 07:20:37;;;;;;;14.95;6.38;;;;;;;27.67;39.27;98773.91;5046041;27;20242;-58
2022/04/25 07:28:57;;;;;;;16.90;6.13;;;;;;;28.23;37.79;98775.56;5045801;28;20232;-58
2022/04/25 07:31:25;;;;;;;23.25;6.88;;;;;;;28.10;38.66;98775.28;5046635;28;20207;-58
2022/04/25 07:33:56;;;;;;;17.48;6.65;;;;;;;28.64;37.51;98778.00;5046625;28;20201;-58
2022/04/25 07:36:25;;;;;;;16.60;6.13;;;;;;;28.37;38.01;98772.16;5049771;28;20197;-58
2022/04/25 07:38:52;;;;;;;20.05;6.10;;;;;;;28.04;38.25;98768.78;5050619;28;20196;-57
2022/04/25 07:41:19;;;;;;;15.40;5.88;;;;;;;27.96;37.95;98762.66;5050191;28;20308;-57
2022/04/25 07:43:45;;;;;;;21.15;6.43;;;;;;;27.39;38.58;98763.63;5050210;28;20657;-57
2022/04/25 07:46:17;;;;;;;17.45;5.75;;;;;;;27.59;38.74;98749.94;5050106;28;20219;-57
2022/04/25 07:48:44;;;;;;;19.08;6.32;;;;;;;27.79;38.41;98748.53;5050348;28;20266;-57
2022/04/25 07:51:11;;;;;;;13.93;5.75;;;;;;;27.73;38.94;98746.56;5049871;28;20205;-57
2022/04/25 07:53:39;;;;;;;15.20;5.93;;;;;;;28.14;38.53;98741.91;5049877;28;20200;-57
2022/04/25 07:56:06;;;;;;;15.60;6.25;;;;;;;28.84;37.01;98748.00;5050031;28;20197;-54
2022/04/25 07:58:34;;;;;;;19.17;6.45;;;;;;;28.74;37.08;98720.69;5049751;28;20279;-54
2022/04/25 08:01:01;;;;;;;18.30;6.85;;;;;;;29.03;36.58;98741.34;5049633;28;20287;-55
2022/04/25 08:03:28;;;;;;;22.55;6.10;;;;;;;28.59;37.19;98741.16;5049520;28;20199;-55
2022/04/25 08:05:55;;;;;;;11.30;5.78;;;;;;;28.71;37.85;98747.75;5049810;28;20287;-55
2022/04/25 08:08:22;;;;;;;14.63;5.82;;;;;;;28.85;36.60;98739.00;5049530;28;20224;-54
2022/04/25 08:10:51;;;;;;;16.15;5.75;;;;;;;29.11;36.32;98735.09;5049967;28;20214;-55
2022/04/25 08:18:46;;;;;;;14.60;5.43;;;;;;;29.19;36.15;98724.34;5049753;28;20203;-54
2022/04/25 08:21:13;;;;;;;9.85;5.35;;;;;;;29.88;35.08;98725.78;5049486;28;20202;-54
2022/04/25 08:23:41;;;;;;;16.02;5.47;;;;;;;30.28;34.45;98716.38;5049434;28;20249;-54
2022/04/25 08:26:09;;;;;;;13.45;5.05;;;;;;;30.61;34.02;98707.88;5049225;28;20240;-54
2022/04/25 08:28:36;;;;;;;14.57;5.10;;;;;;;30.25;34.36;98699.84;5049530;28;20217;-53
2022/04/25 08:31:04;;;;;;;19.38;5.25;;;;;;;30.21;34.56;98698.59;5049164;28;20201;-54
2022/04/25 08:33:31;;;;;;;12.60;4.82;;;;;;;30.17;34.79;98699.97;5049150;28;20225;-54
2022/04/25 08:35:58;;;;;;;13.00;5.63;;;;;;;30.14;34.39;98703.88;5039557;28;20652;-54
2022/04/25 08:38:25;;;;;;;15.27;5.38;;;;;;;29.58;35.35;98695.53;5040063;28;20193;-54
2022/04/25 08:40:52;;;;;;;18.90;5.53;;;;;;;29.96;34.87;98682.88;5051894;27;20584;-55
2022/04/25 08:43:21;;;;;;;14.43;5.35;;;;;;;29.43;35.45;98683.19;5039162;28;20661;-55
2022/04/25 08:45:49;;;;;;;15.77;6.07;;;;;;;29.31;36.41;98685.44;5044190;28;20200;-55
2022/04/25 08:48:18;;;;;;;18.92;5.60;;;;;;;29.86;35.02;98678.81;5040844;28;20245;-55
2022/04/25 08:50:49;;;;;;;16.58;5.78;;;;;;;29.72;35.49;98687.69;5044405;28;20205;-55
2022/04/25 08:53:18;;;;;;;13.63;5.35;;;;;;;28.27;37.04;98686.16;5048814;28;20200;-54
2022/04/25 08:55:46;;;;;;;18.08;6.80;;;;;;;28.32;38.03;98683.78;5037913;28;20196;-54
2022/04/25 08:58:13;;;;;;;13.13;5.38;;;;;;;28.66;37.69;98682.53;5036778;28;20197;-54
2022/04/25 09:00:42;;;;;;;17.60;5.70;;;;;;;28.72;37.14;98674.63;5031586;28;20304;-53
2022/04/25 09:03:10;;;;;;;14.73;5.05;;;;;;;28.52;37.46;98679.63;5036751;28;20204;-54
2022/04/25 09:05:38;;;;;;;19.45;5.22;;;;;;;28.82;36.82;98672.56;5044713;28;20197;-54
2022/04/25 09:08:07;;;;;;;12.32;5.78;;;;;;;28.40;38.00;98669.56;5045585;28;20194;-54
2022/04/25 09:10:35;;;;;;;20.25;5.38;;;;;;;27.73;38.64;98667.41;5030706;28;20197;-54
2022/04/25 09:13:02;;;;;;;12.23;5.03;;;;;;;27.77;39.01;98667.88;5037030;28;20579;-54
2022/04/25 09:15:29;;;;;;;14.10;5.85;;;;;;;28.10;38.37;98661.38;5038187;28;20674;-54
2022/04/25 09:17:59;;;;;;;15.98;5.35;;;;;;;28.44;37.82;98655.66;5037617;28;20588;-58
2022/04/25 09:20:26;;;;;;;10.90;5.10;;;;;;;28.45;37.92;98651.16;5030935;28;20687;-58
2022/04/25 09:22:54;;;;;;;11.95;5.25;;;;;;;27.97;38.55;98652.31;5028833;28;20197;-57
2022/04/25 09:25:21;;;;;;;24.17;6.20;;;;;;;27.95;38.87;98647.13;5028538;27;20625;-57
2022/04/25 09:27:48;;;;;;;20.17;5.53;;;;;;;28.54;38.09;98644.75;5026933;28;20586;-56
2022/04/25 09:30:19;;;;;;;16.98;5.53;;;;;;;28.59;37.66;98626.34;5028764;28;20233;-57
2022/04/25 09:32:48;;;;;;;14.77;6.18;;;;;;;29.47;36.43;98636.34;5043589;28;20197;-58
2022/04/25 09:35:37;;;;;;;16.70;5.40;;;;;;;29.82;35.64;98634.72;5034000;28;20217;-58
2022/04/25 09:38:05;;;;;;;14.45;5.85;;;;;;;29.99;34.92;98614.78;5028529;28;20624;-57
2022/04/25 09:40:34;;;;;;;15.85;5.80;;;;;;;30.67;34.34;98632.13;5027661;28;20219;-56
2022/04/25 09:43:07;;;;;;;11.82;5.63;;;;;;;30.85;34.12;98632.47;5028332;28;20208;-57
2022/04/25 09:45:35;;;;;;;18.08;5.40;;;;;;;30.53;33.97;98633.88;5028635;28;20194;-58
2022/04/25 09:48:03;;;;;;;20.42;6.35;;;;;;;30.34;34.70;98623.78;5031175;28;20193;-57
2022/04/25 09:50:30;;;;;;;17.60;5.47;;;;;;;29.96;34.93;98623.19;5036951;28;20197;-57
2022/04/25 09:53:00;;;;;;;22.33;5.93;;;;;;;30.18;35.15;98602.59;5033991;28;20922;-57
2022/04/25 09:55:29;;;;;;;21.35;5.95;;;;;;;30.95;33.72;98614.19;5039147;28;20193;-57
2022/04/25 09:57:56;;;;;;;18.65;6.15;;;;;;;31.14;33.62;98610.03;5037750;28;20688;-57
2022/04/25 10:00:33;;;;;;;31.30;6.03;;;;;;;32.10;31.40;98613.50;5037200;28;20296;-57
2022/04/25 10:03:00;;;;;;;19.20;6.13;;;;;;;32.56;31.29;98599.34;5035867;27;20586;-58
2022/04/25 10:05:39;;;;;;;25.77;5.80;;;;;;;31.82;32.16;98604.78;5036715;28;20216;-57
2022/04/25 10:08:10;;;;;;;15.13;5.68;;;;;;;32.22;31.42;98603.03;5036612;28;20245;-57
2022/04/25 10:10:41;;;;;;;17.42;6.43;;;;;;;32.77;30.74;98597.28;5035827;28;20221;-55
2022/04/25 10:13:10;;;;;;;24.83;6.53;;;;;;;32.64;30.49;98591.88;5036657;28;20261;-54
2022/04/25 10:15:38;;;;;;;12.57;6.75;;;;;;;31.75;31.92;98602.06;5038216;28;20219;-55
2022/04/25 10:18:06;;;;;;;17.95;6.22;;;;;;;30.53;33.77;98604.41;5036240;27;20255;-55
2022/04/25 10:20:36;;;;;;;13.35;6.55;;;;;;;29.47;35.32;98594.38;5033361;28;20224;-54
2022/04/25 10:23:04;;;;;;;21.52;7.18;;;;;;;28.42;36.97;98590.97;5044582;28;20221;-54
2022/04/25 10:25:33;;;;;;;23.75;7.22;;;;;;;27.75;39.15;98596.09;5046902;28;20228;-55
2022/04/25 10:28:02;;;;;;;18.23;6.55;;;;;;;27.63;39.28;98593.97;5042210;28;20221;-55
2022/04/25 10:30:34;;;;;;;25.80;6.72;;;;;;;27.10;39.25;98600.81;5026985;28;20255;-56
2022/04/25 10:33:17;;;;;;;18.83;5.80;;;;;;;26.63;40.55;98588.25;5026993;27;20709;-55
2022/04/25 10:35:45;;;;;;;14.20;6.45;;;;;;;26.30;41.42;98584.75;5026619;28;20226;-55
2022/04/25 10:38:49;;;;;;;14.13;6.00;;;;;;;26.13;41.20;98579.59;5026798;27;20706;-55
2022/04/25 10:44:47;;;;;;;11.90;5.05;;;;;;;25.83;41.87;98579.22;5027290;28;20633;-56
2022/04/25 10:47:15;;;;;;;16.08;6.10;;;;;;;25.75;42.20;98573.88;5026706;27;20231;-56
2022/04/25 10:49:45;;;;;;;14.32;5.15;;;;;;;25.58;41.94;98580.97;5026348;28;20614;-56
2022/04/25 10:52:51;;;;;;;18.80;5.40;;;;;;;25.77;41.33;98573.72;5026372;27;20217;-56
2022/04/25 10:55:23;;;;;;;16.45;5.63;;;;;;;25.81;41.09;98565.25;5033043;28;20251;-57
2022/04/25 10:58:21;;;;;;;18.80;5.20;;;;;;;25.81;41.70;98570.59;5046217;28;20216;-56
2022/04/25 11:00:53;;;;;;;20.23;5.45;;;;;;;25.89;41.51;98567.94;5107650;28;20219;-56
2022/04/25 11:03:23;;;;;;;20.63;5.70;;;;;;;25.84;41.86;98564.13;5058107;28;20269;-56
2022/04/25 11:05:52;;;;;;;14.18;6.13;;;;;;;25.91;42.65;98565.09;5046161;28;20225;-56
2022/04/25 11:08:36;;;;;;;14.98;5.80;;;;;;;25.75;43.29;98565.06;5046346;28;20586;-57
2022/04/25 11:11:13;;;;;;;15.20;5.18;;;;;;;25.83;43.05;98562.44;5049090;28;20225;-57
2022/04/25 11:14:13;;;;;;;13.32;5.78;;;;;;;25.68;42.87;98563.06;5049676;28;20224;-57
2022/04/25 11:16:40;;;;;;;18.27;5.53;;;;;;;25.66;42.88;98540.31;5049560;28;20216;-57
2022/04/25 11:19:10;;;;;;;13.75;5.90;;;;;;;25.67;43.54;98558.75;5049891;28;20230;-57
2022/04/25 11:21:43;;;;;;;16.35;5.75;;;;;;;25.54;43.50;98552.19;5048414;28;20224;-55
2022/04/25 11:24:33;;;;;;;15.15;5.85;;;;;;;25.52;43.92;98555.03;5050136;28;20606;-56
2022/04/25 11:27:01;;;;;;;20.70;6.45;;;;;;;25.46;43.74;98544.22;5049548;28;20244;-53
2022/04/25 11:29:30;;;;;;;17.25;5.50;;;;;;;25.74;43.26;98548.28;5049623;28;20251;-54
2022/04/25 11:32:26;;;;;;;17.17;5.53;;;;;;;25.81;42.44;98553.81;5049356;28;20225;-55
2022/04/25 11:34:53;;;;;;;21.42;6.55;;;;;;;25.75;41.88;98549.13;5049323;28;20719;-55
2022/04/25 11:37:22;;;;;;;17.63;5.88;;;;;;;25.86;42.25;98551.47;5049364;28;20216;-55
2022/04/25 11:40:04;;;;;;;23.23;6.45;;;;;;;25.65;42.10;98541.31;5049085;28;20220;-55
2022/04/25 11:42:32;;;;;;;18.65;5.93;;;;;;;25.65;41.66;98538.66;5049824;28;20212;-55
2022/04/25 11:45:01;;;;;;;16.15;5.20;;;;;;;25.65;40.94;98542.13;5049975;28;20312;-55
2022/04/25 11:47:31;;;;;;;16.17;5.55;;;;;;;25.53;41.09;98546.06;5049538;28;20596;-54
2022/04/25 11:49:59;;;;;;;18.90;5.38;;;;;;;25.53;41.01;98537.25;5048824;28;20324;-55
2022/04/25 11:52:27;;;;;;;23.25;6.65;;;;;;;25.62;41.23;98539.00;5049026;28;20728;-55
2022/04/25 11:54:55;;;;;;;17.27;6.00;;;;;;;25.83;40.65;98544.69;5049043;28;20220;-55
2022/04/25 11:57:22;;;;;;;24.27;5.57;;;;;;;25.92;39.74;98540.19;5049219;28;20732;-55